sensor_id;sensor_type;location;lat;lon;timestamp;P1;P2;P0
77413;PMS7003;66486;49.992;19.164;2023-06-22T00:01:56;12.50;12.50;9.00
77413;PMS7003;66486;49.992;19.164;2023-06-22T00:04:22;11.25;10.25;8.50
77413;PMS7003;66486;49.992;19.164;2023-06-22T00:06:48;14.00;14.00;10.00
77413;PMS7003;66486;49.992;19.164;2023-06-22T00:09:14;11.50;11.50;8.75
77413;PMS7003;66486;49.992;19.164;2023-06-22T00:11:40;17.67;14.00;10.00
77413;PMS7003;66486;49.992;19.164;2023-06-22T00:14:06;13.00;12.25;9.00
77413;PMS7003;66486;49.992;19.164;2023-06-22T00:16:32;9.00;8.67;7.33
77413;PMS7003;66486;49.992;19.164;2023-06-22T00:18:58;12.75;12.75;8.75
77413;PMS7003;66486;49.992;19.164;2023-06-22T00:21:26;10.75;10.75;8.00
77413;PMS7003;66486;49.992;19.164;2023-06-22T00:23:52;12.75;12.75;9.00
77413;PMS7003;66486;49.992;19.164;2023-06-22T00:26:19;13.00;13.00;8.00
77413;PMS7003;66486;49.992;19.164;2023-06-22T00:28:45;10.25;10.25;8.75
77413;PMS7003;66486;49.992;19.164;2023-06-22T00:31:11;11.00;11.00;8.00
77413;PMS7003;66486;49.992;19.164;2023-06-22T00:33:37;13.00;12.00;9.25
77413;PMS7003;66486;49.992;19.164;2023-06-22T00:36:03;12.33;12.33;8.67
77413;PMS7003;66486;49.992;19.164;2023-06-22T00:38:29;10.00;10.00;7.75
77413;PMS7003;66486;49.992;19.164;2023-06-22T00:40:55;10.67;10.67;9.00
77413;PMS7003;66486;49.992;19.164;2023-06-22T00:43:21;13.00;11.50;6.50
77413;PMS7003;66486;49.992;19.164;2023-06-22T00:45:47;10.67;10.67;7.00
77413;PMS7003;66486;49.992;19.164;2023-06-22T00:48:13;9.50;9.50;7.00
77413;PMS7003;66486;49.992;19.164;2023-06-22T00:50:40;10.50;10.50;8.00
77413;PMS7003;66486;49.992;19.164;2023-06-22T00:53:08;13.75;13.75;9.25
77413;PMS7003;66486;49.992;19.164;2023-06-22T00:55:35;13.50;13.25;9.75
77413;PMS7003;66486;49.992;19.164;2023-06-22T00:58:06;9.00;9.00;7.00
77413;PMS7003;66486;49.992;19.164;2023-06-22T01:00:35;11.00;11.00;8.00
77413;PMS7003;66486;49.992;19.164;2023-06-22T01:03:02;9.00;9.00;8.00
77413;PMS7003;66486;49.992;19.164;2023-06-22T01:05:29;12.75;12.75;9.00
77413;PMS7003;66486;49.992;19.164;2023-06-22T01:11:18;9.00;8.50;8.00
77413;PMS7003;66486;49.992;19.164;2023-06-22T01:13:53;10.50;10.00;7.00
77413;PMS7003;66486;49.992;19.164;2023-06-22T01:16:26;13.25;13.00;9.00
77413;PMS7003;66486;49.992;19.164;2023-06-22T01:18:55;12.00;12.00;8.00
77413;PMS7003;66486;49.992;19.164;2023-06-22T01:21:23;13.00;13.00;9.50
77413;PMS7003;66486;49.992;19.164;2023-06-22T01:23:56;13.00;13.00;9.00
77413;PMS7003;66486;49.992;19.164;2023-06-22T01:26:57;9.00;9.00;6.75
77413;PMS7003;66486;49.992;19.164;2023-06-22T01:29:49;10.25;10.25;8.00
77413;PMS7003;66486;49.992;19.164;2023-06-22T01:32:16;14.25;13.25;8.00
77413;PMS7003;66486;49.992;19.164;2023-06-22T01:34:44;11.25;9.75;8.00
77413;PMS7003;66486;49.992;19.164;2023-06-22T01:37:12;11.25;11.25;8.25
77413;PMS7003;66486;49.992;19.164;2023-06-22T01:39:39;11.75;11.75;9.00
77413;PMS7003;66486;49.992;19.164;2023-06-22T01:42:06;10.50;10.50;8.00
77413;PMS7003;66486;49.992;19.164;2023-06-22T01:44:32;9.50;9.50;7.25
77413;PMS7003;66486;49.992;19.164;2023-06-22T01:46:59;10.75;10.75;7.75
77413;PMS7003;66486;49.992;19.164;2023-06-22T01:49:25;8.00;8.00;7.00
77413;PMS7003;66486;49.992;19.164;2023-06-22T01:51:51;12.00;12.00;9.00
77413;PMS7003;66486;49.992;19.164;2023-06-22T01:54:19;12.00;12.00;8.00
77413;PMS7003;66486;49.992;19.164;2023-06-22T01:56:45;8.00;8.00;6.00
77413;PMS7003;66486;49.992;19.164;2023-06-22T01:59:13;12.00;12.00;7.50
77413;PMS7003;66486;49.992;19.164;2023-06-22T02:01:51;12.75;12.75;8.75
77413;PMS7003;66486;49.992;19.164;2023-06-22T02:04:27;13.25;13.25;9.50
77413;PMS7003;66486;49.992;19.164;2023-06-22T02:07:00;14.00;13.25;9.25
77413;PMS7003;66486;49.992;19.164;2023-06-22T02:09:28;13.75;13.75;9.25
77413;PMS7003;66486;49.992;19.164;2023-06-22T02:11:55;12.25;12.25;9.25
77413;PMS7003;66486;49.992;19.164;2023-06-22T02:14:23;11.00;11.00;7.75
77413;PMS7003;66486;49.992;19.164;2023-06-22T02:16:50;12.00;11.25;7.00
77413;PMS7003;66486;49.992;19.164;2023-06-22T02:19:17;14.00;14.00;10.75
77413;PMS7003;66486;49.992;19.164;2023-06-22T02:21:48;11.50;11.50;8.00
77413;PMS7003;66486;49.992;19.164;2023-06-22T02:24:14;12.00;11.00;8.00
77413;PMS7003;66486;49.992;19.164;2023-06-22T02:26:40;10.67;10.33;8.00
77413;PMS7003;66486;49.992;19.164;2023-06-22T02:29:08;13.50;13.50;8.25
77413;PMS7003;66486;49.992;19.164;2023-06-22T02:31:33;12.33;12.33;8.00
77413;PMS7003;66486;49.992;19.164;2023-06-22T02:33:59;10.75;10.75;8.50
77413;PMS7003;66486;49.992;19.164;2023-06-22T02:36:25;11.67;11.67;9.00
77413;PMS7003;66486;49.992;19.164;2023-06-22T02:38:53;12.00;12.00;9.00
77413;PMS7003;66486;49.992;19.164;2023-06-22T02:41:19;13.00;12.50;8.75
77413;PMS7003;66486;49.992;19.164;2023-06-22T02:43:46;14.00;14.00;10.25
77413;PMS7003;66486;49.992;19.164;2023-06-22T02:46:12;13.67;12.00;8.33
77413;PMS7003;66486;49.992;19.164;2023-06-22T02:48:41;8.50;8.50;7.00
77413;PMS7003;66486;49.992;19.164;2023-06-22T02:51:07;14.25;14.25;9.00
77413;PMS7003;66486;49.992;19.164;2023-06-22T02:53:34;13.00;13.00;8.25
77413;PMS7003;66486;49.992;19.164;2023-06-22T02:56:01;14.75;13.50;11.50
77413;PMS7003;66486;49.992;19.164;2023-06-22T02:58:31;14.00;14.00;11.75
77413;PMS7003;66486;49.992;19.164;2023-06-22T03:01:06;15.25;14.50;11.00
77413;PMS7003;66486;49.992;19.164;2023-06-22T03:03:32;14.00;13.75;10.00
77413;PMS7003;66486;49.992;19.164;2023-06-22T03:05:58;18.00;17.67;11.00
77413;PMS7003;66486;49.992;19.164;2023-06-22T03:08:27;17.50;15.50;11.50
77413;PMS7003;66486;49.992;19.164;2023-06-22T03:10:54;15.25;15.25;11.00
77413;PMS7003;66486;49.992;19.164;2023-06-22T03:13:20;16.75;16.25;12.00
77413;PMS7003;66486;49.992;19.164;2023-06-22T03:15:45;15.00;15.00;10.33
77413;PMS7003;66486;49.992;19.164;2023-06-22T03:18:11;17.75;17.00;12.75
77413;PMS7003;66486;49.992;19.164;2023-06-22T03:20:37;13.67;13.00;10.00
77413;PMS7003;66486;49.992;19.164;2023-06-22T03:23:03;17.50;17.25;13.00
77413;PMS7003;66486;49.992;19.164;2023-06-22T03:25:30;15.75;15.75;12.75
77413;PMS7003;66486;49.992;19.164;2023-06-22T03:27:56;19.00;19.00;11.75
77413;PMS7003;66486;49.992;19.164;2023-06-22T03:30:22;16.67;15.00;12.00
77413;PMS7003;66486;49.992;19.164;2023-06-22T03:32:48;18.75;18.25;12.50
77413;PMS7003;66486;49.992;19.164;2023-06-22T03:35:13;17.33;17.33;12.00
77413;PMS7003;66486;49.992;19.164;2023-06-22T03:37:40;16.50;16.50;11.25
77413;PMS7003;66486;49.992;19.164;2023-06-22T03:40:06;15.50;14.25;10.25
77413;PMS7003;66486;49.992;19.164;2023-06-22T03:42:36;12.50;12.50;8.00
77413;PMS7003;66486;49.992;19.164;2023-06-22T03:45:02;16.00;16.00;12.75
77413;PMS7003;66486;49.992;19.164;2023-06-22T03:47:29;14.75;14.75;9.75
77413;PMS7003;66486;49.992;19.164;2023-06-22T03:49:55;14.00;14.00;11.00
77413;PMS7003;66486;49.992;19.164;2023-06-22T03:52:21;13.75;13.75;9.75
77413;PMS7003;66486;49.992;19.164;2023-06-22T03:54:47;15.00;15.00;10.00
77413;PMS7003;66486;49.992;19.164;2023-06-22T03:57:14;15.50;14.75;9.50
77413;PMS7003;66486;49.992;19.164;2023-06-22T03:59:40;13.00;12.67;10.67
77413;PMS7003;66486;49.992;19.164;2023-06-22T04:02:06;13.50;13.50;10.50
77413;PMS7003;66486;49.992;19.164;2023-06-22T04:04:31;15.33;14.67;10.00
77413;PMS7003;66486;49.992;19.164;2023-06-22T04:06:59;13.75;13.50;8.75
77413;PMS7003;66486;49.992;19.164;2023-06-22T04:09:25;15.33;15.33;10.00
77413;PMS7003;66486;49.992;19.164;2023-06-22T04:11:51;14.00;13.50;9.50
77413;PMS7003;66486;49.992;19.164;2023-06-22T04:14:17;12.00;10.50;8.75
77413;PMS7003;66486;49.992;19.164;2023-06-22T04:16:43;13.75;13.75;9.00
77413;PMS7003;66486;49.992;19.164;2023-06-22T04:19:09;10.33;10.00;8.00
77413;PMS7003;66486;49.992;19.164;2023-06-22T04:21:42;3.00;3.00;1.00
77413;PMS7003;66486;49.992;19.164;2023-06-22T04:24:09;12.25;12.25;10.25
77413;PMS7003;66486;49.992;19.164;2023-06-22T04:26:37;12.50;11.50;7.50
77413;PMS7003;66486;49.992;19.164;2023-06-22T04:29:03;11.00;11.00;8.00
77413;PMS7003;66486;49.992;19.164;2023-06-22T04:31:31;11.50;11.50;8.00
77413;PMS7003;66486;49.992;19.164;2023-06-22T04:34:02;11.00;11.00;9.00
77413;PMS7003;66486;49.992;19.164;2023-06-22T04:36:39;12.25;12.25;8.00
77413;PMS7003;66486;49.992;19.164;2023-06-22T04:39:07;12.25;12.25;8.50
77413;PMS7003;66486;49.992;19.164;2023-06-22T04:41:37;13.00;13.00;9.50
77413;PMS7003;66486;49.992;19.164;2023-06-22T04:46:36;10.25;10.25;8.25
77413;PMS7003;66486;49.992;19.164;2023-06-22T04:49:07;9.50;9.50;8.00
77413;PMS7003;66486;49.992;19.164;2023-06-22T04:51:41;11.75;11.00;7.25
77413;PMS7003;66486;49.992;19.164;2023-06-22T04:54:08;13.25;12.25;8.75
77413;PMS7003;66486;49.992;19.164;2023-06-22T04:56:35;11.25;11.25;7.50
77413;PMS7003;66486;49.992;19.164;2023-06-22T04:59:01;10.25;10.25;8.00
77413;PMS7003;66486;49.992;19.164;2023-06-22T05:01:29;11.60;11.20;8.60
77413;PMS7003;66486;49.992;19.164;2023-06-22T05:03:57;11.80;11.80;7.80
77413;PMS7003;66486;49.992;19.164;2023-06-22T05:06:26;10.75;10.50;6.50
77413;PMS7003;66486;49.992;19.164;2023-06-22T05:08:53;13.00;13.00;8.80
77413;PMS7003;66486;49.992;19.164;2023-06-22T05:11:24;9.80;9.40;8.00
77413;PMS7003;66486;49.992;19.164;2023-06-22T05:13:51;13.80;12.60;8.00
77413;PMS7003;66486;49.992;19.164;2023-06-22T05:16:17;10.60;10.60;8.00
77413;PMS7003;66486;49.992;19.164;2023-06-22T05:18:48;12.40;12.00;9.20
77413;PMS7003;66486;49.992;19.164;2023-06-22T05:21:14;12.60;12.60;9.40
77413;PMS7003;66486;49.992;19.164;2023-06-22T05:23:40;15.50;15.50;12.00
77413;PMS7003;66486;49.992;19.164;2023-06-22T05:26:06;14.60;14.40;9.00
77413;PMS7003;66486;49.992;19.164;2023-06-22T05:28:34;15.00;15.00;11.20
77413;PMS7003;66486;49.992;19.164;2023-06-22T05:31:00;16.40;16.00;10.60
77413;PMS7003;66486;49.992;19.164;2023-06-22T05:33:26;14.00;14.00;10.00
77413;PMS7003;66486;49.992;19.164;2023-06-22T05:35:52;12.60;12.20;8.20
77413;PMS7003;66486;49.992;19.164;2023-06-22T05:38:18;12.50;12.50;8.50
77413;PMS7003;66486;49.992;19.164;2023-06-22T05:40:44;14.20;13.80;9.80
77413;PMS7003;66486;49.992;19.164;2023-06-22T05:43:10;15.25;14.50;10.00
77413;PMS7003;66486;49.992;19.164;2023-06-22T05:45:36;15.60;15.00;9.60
77413;PMS7003;66486;49.992;19.164;2023-06-22T05:48:02;14.25;14.25;10.00
77413;PMS7003;66486;49.992;19.164;2023-06-22T05:50:28;19.20;17.60;13.20
77413;PMS7003;66486;49.992;19.164;2023-06-22T05:52:54;16.00;16.00;11.25
77413;PMS7003;66486;49.992;19.164;2023-06-22T05:55:20;21.40;21.40;15.00
77413;PMS7003;66486;49.992;19.164;2023-06-22T05:57:46;20.25;20.25;13.00
77413;PMS7003;66486;49.992;19.164;2023-06-22T06:00:12;16.80;16.80;11.00
77413;PMS7003;66486;49.992;19.164;2023-06-22T06:02:38;19.00;19.00;13.60
77413;PMS7003;66486;49.992;19.164;2023-06-22T06:05:12;19.20;19.20;12.80
77413;PMS7003;66486;49.992;19.164;2023-06-22T06:07:44;23.00;22.80;12.60
77413;PMS7003;66486;49.992;19.164;2023-06-22T06:10:11;13.60;13.60;9.00
77413;PMS7003;66486;49.992;19.164;2023-06-22T06:12:37;20.20;20.20;12.60
77413;PMS7003;66486;49.992;19.164;2023-06-22T06:15:03;18.40;18.40;12.20
77413;PMS7003;66486;49.992;19.164;2023-06-22T06:17:30;18.40;18.40;13.00
77413;PMS7003;66486;49.992;19.164;2023-06-22T06:19:56;23.60;23.40;14.60
77413;PMS7003;66486;49.992;19.164;2023-06-22T06:22:23;19.00;19.00;13.20
77413;PMS7003;66486;49.992;19.164;2023-06-22T06:24:50;16.40;16.40;11.00
77413;PMS7003;66486;49.992;19.164;2023-06-22T06:27:16;21.20;21.20;15.60
77413;PMS7003;66486;49.992;19.164;2023-06-22T06:29:44;23.80;22.40;16.00
77413;PMS7003;66486;49.992;19.164;2023-06-22T06:32:13;19.80;19.60;12.20
77413;PMS7003;66486;49.992;19.164;2023-06-22T06:34:39;20.80;20.80;14.20
77413;PMS7003;66486;49.992;19.164;2023-06-22T06:37:06;20.60;20.60;14.40
77413;PMS7003;66486;49.992;19.164;2023-06-22T06:39:32;18.60;18.60;13.40
77413;PMS7003;66486;49.992;19.164;2023-06-22T06:41:57;23.50;22.25;15.00
77413;PMS7003;66486;49.992;19.164;2023-06-22T06:44:24;18.80;18.80;14.00
77413;PMS7003;66486;49.992;19.164;2023-06-22T06:46:49;20.00;20.00;13.00
77413;PMS7003;66486;49.992;19.164;2023-06-22T06:49:15;22.60;22.60;14.80
77413;PMS7003;66486;49.992;19.164;2023-06-22T06:51:41;18.60;18.60;13.40
77413;PMS7003;66486;49.992;19.164;2023-06-22T06:54:07;26.20;25.00;17.20
77413;PMS7003;66486;49.992;19.164;2023-06-22T06:56:33;25.50;25.50;16.25
77413;PMS7003;66486;49.992;19.164;2023-06-22T06:58:59;22.00;22.00;16.80
77413;PMS7003;66486;49.992;19.164;2023-06-22T07:01:25;23.25;22.25;15.00
77413;PMS7003;66486;49.992;19.164;2023-06-22T07:03:51;24.20;23.40;16.20
77413;PMS7003;66486;49.992;19.164;2023-06-22T07:06:17;24.00;23.25;16.25
77413;PMS7003;66486;49.992;19.164;2023-06-22T07:08:43;26.60;26.00;18.20
77413;PMS7003;66486;49.992;19.164;2023-06-22T07:11:09;24.00;23.40;15.00
77413;PMS7003;66486;49.992;19.164;2023-06-22T07:13:35;25.40;25.40;18.00
77413;PMS7003;66486;49.992;19.164;2023-06-22T07:16:01;23.25;23.25;16.00
77413;PMS7003;66486;49.992;19.164;2023-06-22T07:18:27;23.40;23.40;16.00
77413;PMS7003;66486;49.992;19.164;2023-06-22T07:20:53;20.20;20.20;14.60
77413;PMS7003;66486;49.992;19.164;2023-06-22T07:23:19;19.20;19.00;16.00
77413;PMS7003;66486;49.992;19.164;2023-06-22T07:25:45;25.00;24.00;16.25
77413;PMS7003;66486;49.992;19.164;2023-06-22T07:28:11;31.00;30.80;19.40
77413;PMS7003;66486;49.992;19.164;2023-06-22T07:30:37;21.00;20.50;16.25
77413;PMS7003;66486;49.992;19.164;2023-06-22T07:33:03;25.20;25.20;18.00
77413;PMS7003;66486;49.992;19.164;2023-06-22T07:35:31;24.00;23.60;17.40
77413;PMS7003;66486;49.992;19.164;2023-06-22T07:37:58;29.80;29.60;19.40
77413;PMS7003;66486;49.992;19.164;2023-06-22T07:40:24;25.60;25.60;18.80
77413;PMS7003;66486;49.992;19.164;2023-06-22T07:42:50;26.80;26.80;18.20
77413;PMS7003;66486;49.992;19.164;2023-06-22T07:45:17;30.00;28.80;20.00
77413;PMS7003;66486;49.992;19.164;2023-06-22T07:47:44;27.20;27.00;19.60
77413;PMS7003;66486;49.992;19.164;2023-06-22T07:50:10;28.80;28.40;20.00
77413;PMS7003;66486;49.992;19.164;2023-06-22T07:52:36;24.40;24.40;18.20
77413;PMS7003;66486;49.992;19.164;2023-06-22T07:55:02;23.00;23.00;16.00
77413;PMS7003;66486;49.992;19.164;2023-06-22T07:57:28;25.40;25.40;18.20
77413;PMS7003;66486;49.992;19.164;2023-06-22T08:00:02;27.00;27.00;19.00
77413;PMS7003;66486;49.992;19.164;2023-06-22T08:02:34;26.40;26.40;18.60
77413;PMS7003;66486;49.992;19.164;2023-06-22T08:04:59;31.50;30.25;21.50
77413;PMS7003;66486;49.992;19.164;2023-06-22T08:07:26;27.40;27.40;18.60
77413;PMS7003;66486;49.992;19.164;2023-06-22T08:09:51;22.75;22.75;14.25
77413;PMS7003;66486;49.992;19.164;2023-06-22T08:12:17;28.80;28.00;18.60
77413;PMS7003;66486;49.992;19.164;2023-06-22T08:14:44;35.40;33.80;22.40
77413;PMS7003;66486;49.992;19.164;2023-06-22T08:17:11;25.00;24.60;15.20
77413;PMS7003;66486;49.992;19.164;2023-06-22T08:19:37;29.25;28.75;20.75
77413;PMS7003;66486;49.992;19.164;2023-06-22T08:22:03;28.60;28.40;20.40
77413;PMS7003;66486;49.992;19.164;2023-06-22T08:24:29;28.40;28.40;21.00
77413;PMS7003;66486;49.992;19.164;2023-06-22T08:26:56;31.80;31.60;21.00
77413;PMS7003;66486;49.992;19.164;2023-06-22T08:29:22;25.00;24.75;17.50
77413;PMS7003;66486;49.992;19.164;2023-06-22T08:31:48;27.40;27.20;20.40
77413;PMS7003;66486;49.992;19.164;2023-06-22T08:34:14;28.25;28.00;18.75
77413;PMS7003;66486;49.992;19.164;2023-06-22T08:36:40;33.80;32.60;22.00
77413;PMS7003;66486;49.992;19.164;2023-06-22T08:39:08;31.60;31.60;21.00
77413;PMS7003;66486;49.992;19.164;2023-06-22T08:41:34;28.40;28.00;18.20
77413;PMS7003;66486;49.992;19.164;2023-06-22T08:44:00;27.25;26.75;20.50
77413;PMS7003;66486;49.992;19.164;2023-06-22T08:46:26;26.20;25.60;16.20
77413;PMS7003;66486;49.992;19.164;2023-06-22T08:48:57;29.60;29.40;21.00
77413;PMS7003;66486;49.992;19.164;2023-06-22T08:51:24;30.00;29.60;20.00
77413;PMS7003;66486;49.992;19.164;2023-06-22T08:53:51;34.20;31.80;21.00
77413;PMS7003;66486;49.992;19.164;2023-06-22T08:56:17;33.40;31.40;21.00
77413;PMS7003;66486;49.992;19.164;2023-06-22T08:58:43;33.00;32.00;21.80
77413;PMS7003;66486;49.992;19.164;2023-06-22T09:01:09;28.60;28.60;19.20
77413;PMS7003;66486;49.992;19.164;2023-06-22T09:03:35;28.00;28.00;21.25
77413;PMS7003;66486;49.992;19.164;2023-06-22T09:06:03;28.00;28.00;20.20
77413;PMS7003;66486;49.992;19.164;2023-06-22T09:08:29;30.40;30.00;21.00
77413;PMS7003;66486;49.992;19.164;2023-06-22T09:10:55;25.60;25.60;18.40
77413;PMS7003;66486;49.992;19.164;2023-06-22T09:13:21;26.75;26.75;17.25
77413;PMS7003;66486;49.992;19.164;2023-06-22T09:15:48;23.80;23.80;17.60
77413;PMS7003;66486;49.992;19.164;2023-06-22T09:18:13;29.50;29.00;21.25
77413;PMS7003;66486;49.992;19.164;2023-06-22T09:20:40;34.40;32.80;22.80
77413;PMS7003;66486;49.992;19.164;2023-06-22T09:23:05;35.75;33.75;22.00
77413;PMS7003;66486;49.992;19.164;2023-06-22T09:25:32;32.80;31.00;22.60
77413;PMS7003;66486;49.992;19.164;2023-06-22T09:27:57;37.75;34.50;24.25
77413;PMS7003;66486;49.992;19.164;2023-06-22T09:30:23;27.80;27.80;20.80
77413;PMS7003;66486;49.992;19.164;2023-06-22T09:32:49;33.75;31.25;23.00
77413;PMS7003;66486;49.992;19.164;2023-06-22T09:35:16;33.20;32.20;22.60
77413;PMS7003;66486;49.992;19.164;2023-06-22T09:37:41;36.50;33.00;23.25
77413;PMS7003;66486;49.992;19.164;2023-06-22T09:40:08;33.40;31.40;22.60
77413;PMS7003;66486;49.992;19.164;2023-06-22T09:42:35;31.60;31.20;23.40
77413;PMS7003;66486;49.992;19.164;2023-06-22T09:45:02;30.00;30.00;23.00
77413;PMS7003;66486;49.992;19.164;2023-06-22T09:47:28;32.80;31.80;21.00
77413;PMS7003;66486;49.992;19.164;2023-06-22T09:49:55;30.40;30.00;21.60
77413;PMS7003;66486;49.992;19.164;2023-06-22T09:52:23;35.00;32.75;23.25
77413;PMS7003;66486;49.992;19.164;2023-06-22T09:54:49;32.60;31.60;20.80
77413;PMS7003;66486;49.992;19.164;2023-06-22T09:57:15;33.25;31.50;24.00
77413;PMS7003;66486;49.992;19.164;2023-06-22T09:59:41;33.80;31.00;21.40
77413;PMS7003;66486;49.992;19.164;2023-06-22T10:02:07;34.75;32.00;22.75
77413;PMS7003;66486;49.992;19.164;2023-06-22T10:04:34;35.40;33.20;23.00
77413;PMS7003;66486;49.992;19.164;2023-06-22T10:07:00;31.60;30.00;20.20
77413;PMS7003;66486;49.992;19.164;2023-06-22T10:09:27;34.60;33.00;22.40
77413;PMS7003;66486;49.992;19.164;2023-06-22T10:11:53;35.00;32.25;21.75
77413;PMS7003;66486;49.992;19.164;2023-06-22T10:14:19;32.40;31.40;22.20
77413;PMS7003;66486;49.992;19.164;2023-06-22T10:16:45;28.60;28.60;20.00
77413;PMS7003;66486;49.992;19.164;2023-06-22T10:19:11;32.80;31.80;22.40
77413;PMS7003;66486;49.992;19.164;2023-06-22T10:21:37;33.00;32.25;22.00
77413;PMS7003;66486;49.992;19.164;2023-06-22T10:24:03;31.80;30.80;23.00
77413;PMS7003;66486;49.992;19.164;2023-06-22T10:26:32;35.00;32.80;23.00
77413;PMS7003;66486;49.992;19.164;2023-06-22T10:28:59;31.60;30.00;21.20
77413;PMS7003;66486;49.992;19.164;2023-06-22T10:31:25;35.20;32.80;22.00
77413;PMS7003;66486;49.992;19.164;2023-06-22T10:33:52;27.40;27.40;22.00
77413;PMS7003;66486;49.992;19.164;2023-06-22T10:36:19;31.80;30.60;20.80
77413;PMS7003;66486;49.992;19.164;2023-06-22T10:38:45;22.00;22.00;17.00
77413;PMS7003;66486;49.992;19.164;2023-06-22T10:41:12;25.80;25.80;17.60
77413;PMS7003;66486;49.992;19.164;2023-06-22T10:43:39;28.20;28.20;21.20
77413;PMS7003;66486;49.992;19.164;2023-06-22T10:46:04;34.00;32.50;23.75
77413;PMS7003;66486;49.992;19.164;2023-06-22T10:48:30;29.00;29.00;21.00
77413;PMS7003;66486;49.992;19.164;2023-06-22T10:50:56;28.75;28.25;20.00
77413;PMS7003;66486;49.992;19.164;2023-06-22T10:53:22;36.80;34.20;22.80
77413;PMS7003;66486;49.992;19.164;2023-06-22T10:55:48;30.50;30.50;20.25
77413;PMS7003;66486;49.992;19.164;2023-06-22T10:58:17;30.60;30.40;21.60
77413;PMS7003;66486;49.992;19.164;2023-06-22T11:00:44;28.20;28.20;20.00
77413;PMS7003;66486;49.992;19.164;2023-06-22T11:03:11;30.80;30.00;20.60
77413;PMS7003;66486;49.992;19.164;2023-06-22T11:05:37;29.20;29.20;20.00
77413;PMS7003;66486;49.992;19.164;2023-06-22T11:08:04;29.80;29.40;20.80
77413;PMS7003;66486;49.992;19.164;2023-06-22T11:10:29;28.25;28.25;20.00
77413;PMS7003;66486;49.992;19.164;2023-06-22T11:12:55;25.00;24.00;20.00
77413;PMS7003;66486;49.992;19.164;2023-06-22T11:15:23;30.40;30.00;21.80
77413;PMS7003;66486;49.992;19.164;2023-06-22T11:17:50;23.60;22.40;17.00
77413;PMS7003;66486;49.992;19.164;2023-06-22T11:20:16;28.25;28.25;19.50
77413;PMS7003;66486;49.992;19.164;2023-06-22T11:22:42;21.00;21.00;14.60
77413;PMS7003;66486;49.992;19.164;2023-06-22T11:25:08;27.25;27.25;18.75
77413;PMS7003;66486;49.992;19.164;2023-06-22T11:27:34;28.40;28.40;20.20
77413;PMS7003;66486;49.992;19.164;2023-06-22T11:30:00;22.20;22.20;17.60
77413;PMS7003;66486;49.992;19.164;2023-06-22T11:32:27;23.80;23.80;18.40
77413;PMS7003;66486;49.992;19.164;2023-06-22T11:34:52;21.50;21.50;16.25
77413;PMS7003;66486;49.992;19.164;2023-06-22T11:37:19;21.80;21.80;17.60
77413;PMS7003;66486;49.992;19.164;2023-06-22T11:39:44;22.75;22.75;18.50
77413;PMS7003;66486;49.992;19.164;2023-06-22T11:42:11;16.60;16.60;15.00
77413;PMS7003;66486;49.992;19.164;2023-06-22T11:44:37;21.60;21.40;16.60
77413;PMS7003;66486;49.992;19.164;2023-06-22T11:47:03;23.80;23.00;17.80
77413;PMS7003;66486;49.992;19.164;2023-06-22T11:49:30;21.00;21.00;18.00
77413;PMS7003;66486;49.992;19.164;2023-06-22T11:51:56;18.20;18.00;14.00
77413;PMS7003;66486;49.992;19.164;2023-06-22T11:54:22;19.25;19.25;14.25
77413;PMS7003;66486;49.992;19.164;2023-06-22T11:56:48;17.60;17.60;14.80
77413;PMS7003;66486;49.992;19.164;2023-06-22T11:59:14;19.75;19.75;15.25
77413;PMS7003;66486;49.992;19.164;2023-06-22T12:01:40;19.80;19.80;15.80
77413;PMS7003;66486;49.992;19.164;2023-06-22T12:04:06;18.00;18.00;15.00
77413;PMS7003;66486;49.992;19.164;2023-06-22T12:06:32;21.00;21.00;13.60
77413;PMS7003;66486;49.992;19.164;2023-06-22T12:08:58;20.40;20.40;15.00
77413;PMS7003;66486;49.992;19.164;2023-06-22T12:11:25;15.00;15.00;12.00
77413;PMS7003;66486;49.992;19.164;2023-06-22T12:13:50;17.50;17.50;13.50
77413;PMS7003;66486;49.992;19.164;2023-06-22T12:16:17;17.60;17.60;13.40
77413;PMS7003;66486;49.992;19.164;2023-06-22T12:18:42;16.50;16.50;13.75
77413;PMS7003;66486;49.992;19.164;2023-06-22T12:21:08;18.80;18.80;13.60
77413;PMS7003;66486;49.992;19.164;2023-06-22T12:23:34;16.75;16.50;13.50
77413;PMS7003;66486;49.992;19.164;2023-06-22T12:26:00;15.80;15.60;12.20
77413;PMS7003;66486;49.992;19.164;2023-06-22T12:28:26;16.00;16.00;13.00
77413;PMS7003;66486;49.992;19.164;2023-06-22T12:30:53;15.20;15.20;13.00
77413;PMS7003;66486;49.992;19.164;2023-06-22T12:33:18;12.50;12.50;10.75
77413;PMS7003;66486;49.992;19.164;2023-06-22T12:35:45;14.00;14.00;10.20
77413;PMS7003;66486;49.992;19.164;2023-06-22T12:38:14;17.60;17.60;13.60
77413;PMS7003;66486;49.992;19.164;2023-06-22T12:40:40;19.00;19.00;15.60
77413;PMS7003;66486;49.992;19.164;2023-06-22T12:43:06;17.00;17.00;13.25
77413;PMS7003;66486;49.992;19.164;2023-06-22T12:45:33;16.80;16.80;13.00
77413;PMS7003;66486;49.992;19.164;2023-06-22T12:48:00;17.40;17.40;13.80
77413;PMS7003;66486;49.992;19.164;2023-06-22T12:50:26;18.00;17.80;14.00
77413;PMS7003;66486;49.992;19.164;2023-06-22T12:52:52;18.80;18.00;14.60
77413;PMS7003;66486;49.992;19.164;2023-06-22T12:55:18;16.20;16.20;13.60
77413;PMS7003;66486;49.992;19.164;2023-06-22T12:57:44;18.00;18.00;13.60
77413;PMS7003;66486;49.992;19.164;2023-06-22T13:00:10;18.40;18.40;11.80
77413;PMS7003;66486;49.992;19.164;2023-06-22T13:02:37;21.00;20.60;16.40
77413;PMS7003;66486;49.992;19.164;2023-06-22T13:05:03;15.20;15.20;11.80
77413;PMS7003;66486;49.992;19.164;2023-06-22T13:07:30;19.20;19.20;14.40
77413;PMS7003;66486;49.992;19.164;2023-06-22T13:09:57;16.40;16.40;13.00
77413;PMS7003;66486;49.992;19.164;2023-06-22T13:12:22;18.25;18.25;14.25
77413;PMS7003;66486;49.992;19.164;2023-06-22T13:14:49;17.40;17.40;15.00
77413;PMS7003;66486;49.992;19.164;2023-06-22T13:17:14;16.75;16.75;13.00
77413;PMS7003;66486;49.992;19.164;2023-06-22T13:19:41;15.80;15.80;13.40
77413;PMS7003;66486;49.992;19.164;2023-06-22T13:22:25;15.60;15.60;12.20
77413;PMS7003;66486;49.992;19.164;2023-06-22T13:24:53;15.00;15.00;11.80
77413;PMS7003;66486;49.992;19.164;2023-06-22T13:27:19;19.50;19.00;14.00
77413;PMS7003;66486;49.992;19.164;2023-06-22T13:29:45;17.60;16.80;12.80
77413;PMS7003;66486;49.992;19.164;2023-06-22T13:32:11;20.00;20.00;14.00
77413;PMS7003;66486;49.992;19.164;2023-06-22T13:34:37;18.20;18.20;13.40
77413;PMS7003;66486;49.992;19.164;2023-06-22T13:37:03;18.75;17.00;14.25
77413;PMS7003;66486;49.992;19.164;2023-06-22T13:39:29;16.60;16.20;13.20
77413;PMS7003;66486;49.992;19.164;2023-06-22T13:41:56;15.00;15.00;13.60
77413;PMS7003;66486;49.992;19.164;2023-06-22T13:44:23;16.00;16.00;13.00